Time;durP1;ratioP1;P1;durP2;ratioP2;P2;SDS_P1;SDS_P2;PMS_P1;PMS_P2;Temp;Humidity;BMP_temperature;BMP_pressure;BME280_temperature;BME280_humidity;BME280_pressure;Samples;Min_cycle;Max_cycle;Signal;HPM_P1;HPM_P2
2020/12/06 00:01:49;;;;;;;15.93;9.80;;;;;;;0.13;78.09;100772.70;1798153;79;21484;-63
2020/12/06 00:04:19;;;;;;;21.10;12.10;;;;;;;0.00;77.76;100783.93;1798133;79;21497;-63
2020/12/06 00:06:47;;;;;;;15.85;10.10;;;;;;;-0.12;77.64;100776.41;1798090;79;21051;-63
2020/12/06 00:09:17;;;;;;;14.73;9.58;;;;;;;-0.28;77.37;100775.63;1798164;79;21063;-63
2020/12/06 00:11:45;;;;;;;15.83;9.50;;;;;;;-0.46;76.88;100779.89;1798187;79;21051;-62
2020/12/06 00:14:13;;;;;;;16.07;9.15;;;;;;;-0.64;76.77;100781.59;1798137;79;21091;-62
2020/12/06 00:16:41;;;;;;;11.48;7.97;;;;;;;-0.84;76.97;100784.94;1797923;79;23599;-64
2020/12/06 00:19:09;;;;;;;14.13;9.30;;;;;;;-0.98;77.40;100779.86;1798115;79;21051;-64
2020/12/06 00:21:36;;;;;;;21.80;9.10;;;;;;;-1.11;77.75;100775.27;1798172;79;21066;-64
2020/12/06 00:24:05;;;;;;;18.35;9.75;;;;;;;-1.24;78.10;100776.65;1798146;79;21098;-63
2020/12/06 00:26:33;;;;;;;17.23;9.53;;;;;;;-1.32;78.48;100778.11;1798151;79;21110;-64
2020/12/06 00:29:00;;;;;;;14.63;9.23;;;;;;;-1.42;78.85;100775.73;1798132;79;21146;-63
2020/12/06 00:31:29;;;;;;;17.87;9.95;;;;;;;-1.49;79.10;100785.31;1798067;79;21071;-63
2020/12/06 00:33:56;;;;;;;15.35;8.70;;;;;;;-1.54;79.34;100780.48;1798117;79;21064;-63
2020/12/06 00:36:24;;;;;;;12.25;8.38;;;;;;;-1.60;79.33;100778.19;1798049;79;21158;-63
2020/12/06 00:38:52;;;;;;;14.45;8.80;;;;;;;-1.66;79.32;100779.28;1798172;79;21110;-63
2020/12/06 00:41:22;;;;;;;18.82;8.90;;;;;;;-1.72;79.24;100782.92;1798125;79;21376;-63
2020/12/06 00:43:50;;;;;;;15.78;9.10;;;;;;;-1.76;79.28;100776.86;1798027;79;21158;-63
2020/12/06 00:46:20;;;;;;;15.43;7.95;;;;;;;-1.81;79.16;100774.62;1798131;79;21064;-63
2020/12/06 00:48:48;;;;;;;18.40;9.28;;;;;;;-1.87;79.16;100779.53;1798176;79;21043;-62
2020/12/06 00:51:16;;;;;;;17.52;8.50;;;;;;;-1.93;79.09;100779.34;1798158;79;21051;-62
2020/12/06 00:53:45;;;;;;;16.30;8.83;;;;;;;-2.00;79.13;100780.00;1798122;79;21496;-62
2020/12/06 00:56:20;;;;;;;16.32;8.40;;;;;;;-2.05;79.22;100780.26;1798031;79;21543;-64
2020/12/06 00:58:49;;;;;;;16.42;8.85;;;;;;;-2.13;79.24;100774.92;1798267;79;21138;-62
2020/12/06 01:01:18;;;;;;;12.90;8.95;;;;;;;-2.20;79.38;100780.23;1798132;79;21056;-63
2020/12/06 01:03:46;;;;;;;13.58;8.18;;;;;;;-2.24;79.56;100783.94;1798176;79;21051;-63
2020/12/06 01:06:16;;;;;;;16.65;8.73;;;;;;;-2.26;79.69;100783.89;1798124;79;21368;-62
2020/12/06 01:08:44;;;;;;;14.87;8.20;;;;;;;-2.32;79.80;100784.96;1798011;79;21127;-63
2020/12/06 01:11:13;;;;;;;16.30;8.73;;;;;;;-2.34;79.99;100790.82;1798105;79;21123;-63
2020/12/06 01:13:41;;;;;;;15.70;9.03;;;;;;;-2.39;80.11;100797.45;1798114;79;21123;-62
2020/12/06 01:16:13;;;;;;;16.02;8.80;;;;;;;-2.43;80.39;100791.41;1798091;78;21471;-64
2020/12/06 01:18:41;;;;;;;16.87;9.65;;;;;;;-2.46;80.52;100786.22;1798274;79;21278;-63
2020/12/06 01:21:11;;;;;;;17.77;8.33;;;;;;;-2.48;80.63;100781.48;1798280;79;21071;-63
2020/12/06 01:23:38;;;;;;;12.30;7.78;;;;;;;-2.52;80.82;100781.78;1798267;78;22259;-62
2020/12/06 01:26:07;;;;;;;15.35;8.55;;;;;;;-2.53;80.99;100780.46;1798253;79;21067;-63
2020/12/06 01:28:35;;;;;;;16.82;8.75;;;;;;;-2.57;81.04;100779.48;1798327;79;21067;-62
2020/12/06 01:31:02;;;;;;;17.05;9.38;;;;;;;-2.59;81.00;100782.39;1798232;79;23645;-63
2020/12/06 01:33:30;;;;;;;20.45;9.98;;;;;;;-2.63;81.09;100772.95;1798206;79;21166;-63
2020/12/06 01:35:58;;;;;;;18.70;9.53;;;;;;;-2.65;81.11;100777.13;1798143;79;21083;-63
2020/12/06 01:38:25;;;;;;;14.13;8.80;;;;;;;-2.68;81.19;100778.70;1798265;79;21059;-63
2020/12/06 01:40:53;;;;;;;13.38;8.33;;;;;;;-2.70;81.25;100781.60;1798273;79;21127;-63
2020/12/06 01:43:21;;;;;;;14.20;8.73;;;;;;;-2.73;81.29;100777.27;1798233;79;21432;-63
2020/12/06 01:45:48;;;;;;;17.32;9.38;;;;;;;-2.77;81.25;100782.67;1798162;79;21968;-63
2020/12/06 01:48:15;;;;;;;15.45;8.60;;;;;;;-2.78;81.37;100784.75;1798238;79;21047;-63
2020/12/06 01:50:43;;;;;;;13.48;8.68;;;;;;;-2.78;81.23;100787.70;1798253;79;21190;-63
2020/12/06 01:53:11;;;;;;;14.38;8.25;;;;;;;-2.80;81.08;100781.73;1798280;79;21143;-63
2020/12/06 01:55:39;;;;;;;13.53;8.23;;;;;;;-2.84;81.02;100787.12;1798224;79;21345;-63
2020/12/06 01:58:08;;;;;;;14.40;8.35;;;;;;;-2.86;80.93;100790.02;1782800;79;21523;-63
2020/12/06 02:00:36;;;;;;;15.23;9.05;;;;;;;-2.89;80.96;100782.68;1798242;79;21044;-62
2020/12/06 02:03:05;;;;;;;16.20;9.23;;;;;;;-2.90;80.81;100789.86;1798313;79;21121;-62
2020/12/06 02:05:34;;;;;;;14.15;8.55;;;;;;;-2.95;80.67;100791.38;1798298;79;21483;-62
2020/12/06 02:08:02;;;;;;;15.50;8.85;;;;;;;-3.00;80.66;100788.70;1798283;79;23604;-62
2020/12/06 02:10:32;;;;;;;14.85;8.25;;;;;;;-3.02;80.64;100789.45;1798232;79;21114;-62
2020/12/06 02:12:59;;;;;;;11.30;7.72;;;;;;;-3.07;80.49;100785.87;1798245;79;21043;-62
2020/12/06 02:15:26;;;;;;;16.07;8.43;;;;;;;-3.10;80.55;100794.27;1798171;79;21051;-62
2020/12/06 02:17:54;;;;;;;14.15;8.05;;;;;;;-3.10;80.46;100789.59;1794294;79;21088;-62
2020/12/06 02:20:22;;;;;;;13.35;8.48;;;;;;;-3.09;80.34;100793.87;1792455;80;22098;-62
2020/12/06 02:22:50;;;;;;;15.35;8.80;;;;;;;-3.13;80.17;100793.75;1792267;80;21163;-62
2020/12/06 02:25:18;;;;;;;13.32;8.68;;;;;;;-3.18;80.05;100792.72;1792338;80;21048;-62
2020/12/06 02:27:45;;;;;;;17.23;9.13;;;;;;;-3.20;80.05;100793.52;1792321;80;21083;-62
2020/12/06 02:30:13;;;;;;;17.17;8.35;;;;;;;-3.21;79.97;100790.50;1792352;80;21532;-63
2020/12/06 02:32:41;;;;;;;14.35;8.25;;;;;;;-3.24;79.83;100791.26;1792427;79;22136;-62
2020/12/06 02:35:08;;;;;;;15.28;9.33;;;;;;;-3.26;79.61;100789.47;1792271;78;21063;-62
2020/12/06 02:37:36;;;;;;;15.63;8.08;;;;;;;-3.28;79.62;100791.95;1792344;80;21450;-62
2020/12/06 02:40:04;;;;;;;13.35;8.43;;;;;;;-3.27;79.36;100799.19;1792421;80;21099;-62
2020/12/06 02:42:32;;;;;;;14.35;9.73;;;;;;;-3.32;79.25;100796.87;1772949;80;21103;-63
2020/12/06 02:45:01;;;;;;;15.75;8.78;;;;;;;-3.33;79.15;100797.69;1792312;79;21587;-62
2020/12/06 02:47:29;;;;;;;18.67;8.83;;;;;;;-3.36;78.91;100802.66;1792270;80;21083;-62
2020/12/06 02:49:56;;;;;;;14.75;7.55;;;;;;;-3.37;78.60;100802.20;1792323;79;21047;-62
2020/12/06 02:52:24;;;;;;;14.80;7.80;;;;;;;-3.42;78.56;100802.06;1792302;80;21126;-63
2020/12/06 02:54:51;;;;;;;15.25;8.50;;;;;;;-3.45;78.37;100798.13;1792312;80;21131;-63
2020/12/06 02:57:19;;;;;;;11.95;7.85;;;;;;;-3.48;78.35;100805.24;1792317;80;21252;-63
2020/12/06 02:59:47;;;;;;;13.20;7.90;;;;;;;-3.48;78.35;100806.92;1792275;79;21091;-63
2020/12/06 03:02:15;;;;;;;14.18;7.78;;;;;;;-3.51;77.87;100808.94;1792308;80;21480;-62
2020/12/06 03:04:43;;;;;;;13.93;7.90;;;;;;;-3.55;77.75;100805.82;1792282;80;21099;-62
2020/12/06 03:07:11;;;;;;;15.63;7.75;;;;;;;-3.58;77.50;100804.44;1792352;79;21107;-62
2020/12/06 03:09:39;;;;;;;14.45;8.73;;;;;;;-3.61;77.37;100801.80;1792277;80;21248;-62
2020/12/06 03:12:06;;;;;;;11.73;7.47;;;;;;;-3.65;77.59;100805.45;1792318;80;21630;-62
2020/12/06 03:14:34;;;;;;;13.20;7.95;;;;;;;-3.65;77.72;100801.62;1792308;80;21099;-62
2020/12/06 03:17:01;;;;;;;16.10;7.97;;;;;;;-3.67;77.43;100805.79;1792094;79;21131;-62
2020/12/06 03:19:29;;;;;;;12.20;6.85;;;;;;;-3.70;77.26;100805.67;1792373;80;21043;-62
2020/12/06 03:21:57;;;;;;;13.70;7.42;;;;;;;-3.72;77.17;100809.42;1792313;80;21481;-62
2020/12/06 03:24:25;;;;;;;12.13;8.28;;;;;;;-3.76;77.09;100807.98;1792193;80;21485;-62
2020/12/06 03:26:53;;;;;;;13.83;7.75;;;;;;;-3.77;77.17;100815.14;1792285;80;21099;-62
2020/12/06 03:29:20;;;;;;;12.05;7.65;;;;;;;-3.79;77.23;100815.08;1792270;79;21602;-62
2020/12/06 03:31:48;;;;;;;13.70;7.70;;;;;;;-3.80;77.25;100815.05;1792387;80;21457;-62
2020/12/06 03:34:15;;;;;;;12.28;7.28;;;;;;;-3.80;77.18;100820.14;1792285;80;21372;-62
2020/12/06 03:36:43;;;;;;;14.00;8.00;;;;;;;-3.83;77.27;100819.20;1792080;80;21095;-62
2020/12/06 03:39:15;;;;;;;13.45;8.20;;;;;;;-3.84;77.10;100817.88;1792318;80;21134;-62
2020/12/06 03:41:40;;;;;;;13.05;6.62;;;;;;;-3.89;77.03;100815.16;1792170;79;21183;-62
2020/12/06 03:44:08;;;;;;;16.48;7.50;;;;;;;-3.91;77.03;100816.77;1792281;80;21064;-63
2020/12/06 03:46:35;;;;;;;13.28;7.30;;;;;;;-3.98;76.85;100823.69;1792289;80;21413;-62
2020/12/06 03:49:03;;;;;;;14.50;8.30;;;;;;;-4.01;76.99;100827.41;1792224;80;21142;-62
2020/12/06 03:51:31;;;;;;;13.83;6.92;;;;;;;-4.03;76.97;100820.53;1792256;80;21111;-61
2020/12/06 03:53:59;;;;;;;12.43;8.05;;;;;;;-4.04;76.98;100814.58;1792283;80;21038;-62
2020/12/06 03:56:26;;;;;;;13.35;7.55;;;;;;;-4.05;76.77;100822.14;1792331;80;21044;-63
2020/12/06 03:58:54;;;;;;;12.70;7.87;;;;;;;-4.09;76.79;100822.83;1792235;80;23711;-62
2020/12/06 04:01:22;;;;;;;13.00;7.33;;;;;;;-4.09;76.77;100820.28;1792295;79;21544;-62
2020/12/06 04:03:49;;;;;;;13.08;8.15;;;;;;;-4.11;76.79;100823.17;1792219;79;21055;-62
2020/12/06 04:06:17;;;;;;;14.80;7.85;;;;;;;-4.16;76.62;100820.03;1792256;80;21123;-62
2020/12/06 04:08:45;;;;;;;13.48;7.37;;;;;;;-4.20;76.58;100812.27;1792288;80;21048;-62
2020/12/06 04:11:13;;;;;;;11.18;6.45;;;;;;;-4.21;76.58;100821.95;1792259;80;21272;-61
2020/12/06 04:13:40;;;;;;;11.65;7.45;;;;;;;-4.25;76.33;100818.42;1792205;80;21158;-62
2020/12/06 04:16:08;;;;;;;13.60;7.53;;;;;;;-4.28;76.34;100819.57;1792207;80;21036;-61
2020/12/06 04:18:35;;;;;;;14.03;7.45;;;;;;;-4.30;76.31;100823.72;1792091;79;21059;-61
2020/12/06 04:21:03;;;;;;;17.90;7.53;;;;;;;-4.33;76.15;100823.59;1792265;80;21051;-61
2020/12/06 04:23:31;;;;;;;18.32;7.40;;;;;;;-4.39;76.20;100823.34;1792260;79;21198;-62
2020/12/06 04:25:59;;;;;;;14.53;8.10;;;;;;;-4.41;76.31;100826.66;1792217;80;21060;-62
2020/12/06 04:28:29;;;;;;;17.27;7.45;;;;;;;-4.44;76.51;100824.85;1792261;80;21079;-62
2020/12/06 04:30:57;;;;;;;14.50;7.17;;;;;;;-4.45;76.56;100828.59;1792282;80;21048;-62
2020/12/06 04:33:25;;;;;;;10.88;6.17;;;;;;;-4.48;76.40;100834.41;1792262;80;21071;-62
2020/12/06 04:35:53;;;;;;;29.15;8.25;;;;;;;-4.52;76.35;100829.61;1792202;80;21138;-62
2020/12/06 04:38:21;;;;;;;14.35;7.50;;;;;;;-4.54;76.36;100829.08;1792189;80;21174;-62
2020/12/06 04:40:48;;;;;;;15.03;6.70;;;;;;;-4.57;76.21;100831.48;1792249;79;21060;-62
2020/12/06 04:43:17;;;;;;;14.38;7.15;;;;;;;-4.59;76.12;100840.31;1792255;80;21044;-62
2020/12/06 04:45:48;;;;;;;14.03;7.55;;;;;;;-4.61;76.02;100831.80;1792296;80;21574;-62
2020/12/06 04:48:29;;;;;;;12.90;6.70;;;;;;;-4.61;76.09;100834.73;1792332;80;21202;-62
2020/12/06 04:50:56;;;;;;;16.70;8.70;;;;;;;-4.64;76.08;100836.74;1790285;79;21072;-62
2020/12/06 04:53:27;;;;;;;21.27;9.08;;;;;;;-4.64;75.97;100834.61;1792245;80;21107;-62
2020/12/06 04:55:57;;;;;;;20.62;9.48;;;;;;;-4.64;76.09;100838.02;1792300;79;21055;-63
2020/12/06 04:58:28;;;;;;;13.30;7.03;;;;;;;-4.65;76.06;100835.41;1772975;80;21552;-62
2020/12/06 05:00:55;;;;;;;14.28;7.28;;;;;;;-4.64;75.98;100840.55;1792565;80;22248;-62
2020/12/06 05:03:24;;;;;;;16.07;9.43;;;;;;;-4.65;75.96;100839.21;1792371;79;21127;-62
2020/12/06 05:05:52;;;;;;;11.45;6.85;;;;;;;-4.67;76.00;100843.36;1773023;80;21120;-62
2020/12/06 05:08:20;;;;;;;12.18;7.25;;;;;;;-4.66;75.96;100847.23;1792351;78;21043;-63
2020/12/06 05:10:48;;;;;;;20.43;7.85;;;;;;;-4.69;75.87;100849.64;1792436;78;21127;-62
2020/12/06 05:13:16;;;;;;;14.10;7.30;;;;;;;-4.69;75.93;100849.64;1792441;80;21205;-61
2020/12/06 05:15:47;;;;;;;12.63;7.30;;;;;;;-4.69;75.91;100847.50;1792304;79;21088;-63
2020/12/06 05:18:14;;;;;;;16.15;7.33;;;;;;;-4.70;75.77;100858.45;1794183;78;21551;-63
2020/12/06 05:20:42;;;;;;;14.00;7.45;;;;;;;-4.73;75.65;100856.66;1798248;79;21095;-63
2020/12/06 05:23:10;;;;;;;17.10;7.97;;;;;;;-4.76;75.80;100860.73;1798244;79;21749;-62
2020/12/06 05:25:37;;;;;;;15.88;7.95;;;;;;;-4.78;75.63;100866.14;1756174;79;21389;-62
2020/12/06 05:28:07;;;;;;;13.35;7.65;;;;;;;-4.78;75.60;100866.14;1782867;79;21087;-62
2020/12/06 05:30:40;;;;;;;13.40;6.87;;;;;;;-4.76;75.65;100878.49;1782973;79;21035;-63
2020/12/06 05:33:09;;;;;;;13.45;7.05;;;;;;;-4.75;75.52;100873.88;1798339;79;21048;-62
2020/12/06 05:35:40;;;;;;;12.63;7.08;;;;;;;-4.77;75.48;100877.63;1798174;79;21095;-62
2020/12/06 05:38:09;;;;;;;13.18;6.92;;;;;;;-4.76;75.36;100883.57;1783507;79;22097;-62
2020/12/06 05:40:45;;;;;;;13.48;7.55;;;;;;;-4.73;75.36;100882.44;1798301;79;21075;-62
2020/12/06 05:43:13;;;;;;;17.73;7.47;;;;;;;-4.70;75.04;100878.36;1798290;79;21118;-62
2020/12/06 05:45:41;;;;;;;28.23;8.58;;;;;;;-4.68;74.91;100879.30;1746950;79;21146;-62
2020/12/06 05:48:08;;;;;;;12.90;7.53;;;;;;;-4.68;74.85;100872.95;1798244;79;21059;-63
2020/12/06 05:50:36;;;;;;;13.28;6.90;;;;;;;-4.68;74.64;100874.63;1798266;79;22031;-62
2020/12/06 05:53:04;;;;;;;14.90;7.20;;;;;;;-4.69;74.53;100872.48;1798210;79;21119;-63
2020/12/06 05:55:32;;;;;;;20.80;8.95;;;;;;;-4.70;74.27;100869.48;1783078;79;21571;-62
2020/12/06 05:58:00;;;;;;;13.60;7.75;;;;;;;-4.73;74.17;100877.36;1756160;79;21163;-62
2020/12/06 06:00:28;;;;;;;15.68;8.65;;;;;;;-4.73;74.12;100874.42;1782980;79;21063;-63
2020/12/06 06:02:56;;;;;;;13.70;7.05;;;;;;;-4.69;74.01;100867.80;1782885;79;21325;-63
2020/12/06 06:05:24;;;;;;;26.23;10.05;;;;;;;-4.69;73.97;100867.41;1798174;79;21150;-62
2020/12/06 06:07:51;;;;;;;39.65;25.68;;;;;;;-4.66;73.71;100868.81;1798166;79;21119;-61
2020/12/06 06:10:19;;;;;;;19.87;8.20;;;;;;;-4.65;73.81;100870.55;1782887;79;21508;-63
2020/12/06 06:12:54;;;;;;;14.10;8.15;;;;;;;-4.63;73.86;100874.02;1798257;79;21052;-62
2020/12/06 06:15:22;;;;;;;13.18;7.70;;;;;;;-4.60;73.86;100871.61;1781617;79;21206;-62
2020/12/06 06:17:49;;;;;;;18.80;7.72;;;;;;;-4.60;73.85;100874.55;1781151;79;21063;-64
2020/12/06 06:20:18;;;;;;;14.78;8.08;;;;;;;-4.61;74.02;100875.35;1773140;80;21059;-62
2020/12/06 06:22:48;;;;;;;16.80;8.05;;;;;;;-4.58;73.97;100879.27;1772852;80;21072;-62
2020/12/06 06:25:16;;;;;;;22.95;11.75;;;;;;;-4.60;73.91;100880.50;1772728;80;21053;-61
2020/12/06 06:27:44;;;;;;;26.27;8.30;;;;;;;-4.58;74.01;100879.27;1792288;79;21150;-62
2020/12/06 06:30:12;;;;;;;18.55;7.75;;;;;;;-4.56;73.92;100887.81;1792274;80;21084;-63
2020/12/06 06:32:40;;;;;;;14.63;7.72;;;;;;;-4.55;73.78;100881.93;1792416;78;21151;-62
2020/12/06 06:35:09;;;;;;;14.58;7.67;;;;;;;-4.56;73.61;100889.95;1792338;79;21060;-63
2020/12/06 06:37:38;;;;;;;17.23;8.58;;;;;;;-4.55;73.57;100890.81;1792388;79;21060;-62
2020/12/06 06:42:46;;;;;;;15.23;7.15;;;;;;;-4.42;73.34;100892.21;1873675;76;22260;-62
2020/12/06 06:45:13;;;;;;;19.32;8.30;;;;;;;-4.47;72.94;100892.02;1811597;78;21466;-62
2020/12/06 06:47:41;;;;;;;16.02;7.25;;;;;;;-4.47;72.76;100897.50;1841574;78;21190;-63
2020/12/06 06:50:10;;;;;;;13.38;6.80;;;;;;;-4.48;72.77;100896.62;1841520;78;20979;-63
2020/12/06 06:52:42;;;;;;;18.60;6.95;;;;;;;-4.45;72.27;100897.16;1841624;78;21593;-63
2020/12/06 06:55:10;;;;;;;17.90;7.45;;;;;;;-4.44;72.12;100897.23;1841699;78;21144;-63
2020/12/06 06:57:40;;;;;;;16.37;6.40;;;;;;;-4.40;71.81;100895.28;1841579;78;20986;-63
2020/12/06 07:00:07;;;;;;;15.10;6.87;;;;;;;-4.34;71.80;100906.08;1841545;78;21181;-62
2020/12/06 07:02:41;;;;;;;15.43;7.33;;;;;;;-4.29;71.34;100902.05;1841433;78;21078;-62
2020/12/06 07:05:20;;;;;;;27.30;7.37;;;;;;;-4.29;71.15;100904.59;1841512;77;21121;-63
2020/12/06 07:07:49;;;;;;;17.90;7.90;;;;;;;-4.25;70.74;100903.52;1841520;78;21833;-62
2020/12/06 07:10:24;;;;;;;16.50;7.62;;;;;;;-4.22;70.91;100909.14;1841576;78;21057;-63
2020/12/06 07:12:57;;;;;;;13.32;7.42;;;;;;;-4.18;70.91;100913.50;1841635;78;21350;-62
2020/12/06 07:15:27;;;;;;;12.03;7.67;;;;;;;-4.14;70.65;100910.30;1841565;77;21470;-62
2020/12/06 07:17:56;;;;;;;19.17;8.38;;;;;;;-4.09;70.61;100913.89;1841649;78;21485;-62
2020/12/06 07:20:26;;;;;;;19.87;8.63;;;;;;;-4.05;70.61;100911.95;1841508;78;21042;-63
2020/12/06 07:22:55;;;;;;;12.80;6.97;;;;;;;-4.02;70.36;100911.20;1841631;78;21470;-63
2020/12/06 07:25:23;;;;;;;16.32;8.05;;;;;;;-3.98;70.34;100911.77;1841512;77;21359;-63
2020/12/06 07:27:51;;;;;;;16.15;7.92;;;;;;;-3.90;70.15;100909.14;1841437;78;21113;-63
2020/12/06 07:30:20;;;;;;;16.23;6.85;;;;;;;-3.81;69.55;100908.23;1841482;78;21116;-62
2020/12/06 07:32:47;;;;;;;12.40;6.00;;;;;;;-3.73;69.12;100913.20;1841502;78;21184;-63
2020/12/06 07:35:15;;;;;;;11.53;6.17;;;;;;;-3.67;68.50;100917.66;1841527;78;21065;-62
2020/12/06 07:37:45;;;;;;;20.45;6.97;;;;;;;-3.63;67.95;100916.58;1810395;78;22187;-63
2020/12/06 07:40:13;;;;;;;13.50;7.05;;;;;;;-3.60;68.10;100924.73;1808437;79;21490;-63
2020/12/06 07:42:40;;;;;;;17.32;6.80;;;;;;;-3.58;68.06;100918.86;1813089;79;21124;-65
2020/12/06 07:45:08;;;;;;;21.05;7.75;;;;;;;-3.53;68.30;100923.73;1814148;79;21104;-62
2020/12/06 07:47:36;;;;;;;18.62;7.08;;;;;;;-3.46;68.15;100932.47;1814181;79;21073;-62
2020/12/06 07:50:06;;;;;;;13.83;5.75;;;;;;;-3.38;68.35;100929.80;1814154;79;21405;-63
2020/12/06 07:52:35;;;;;;;10.68;6.08;;;;;;;-3.23;67.97;100931.66;1814136;79;21469;-63
2020/12/06 07:55:08;;;;;;;12.10;5.55;;;;;;;-3.08;67.77;100936.44;1813610;79;21065;-63
2020/12/06 07:57:44;;;;;;;13.98;7.37;;;;;;;-2.94;66.36;100927.62;1813759;79;21235;-63
2020/12/06 08:00:18;;;;;;;10.23;6.10;;;;;;;-2.84;66.29;100933.92;1813666;79;21129;-63
2020/12/06 08:02:49;;;;;;;10.72;6.20;;;;;;;-2.72;66.04;100929.66;1813552;79;21462;-63
2020/12/06 08:05:20;;;;;;;10.60;6.15;;;;;;;-2.62;65.46;100930.45;1813666;78;21613;-62
2020/12/06 08:07:54;;;;;;;15.45;6.20;;;;;;;-2.52;65.29;100933.76;1813577;78;21144;-62
2020/12/06 08:10:25;;;;;;;10.95;5.70;;;;;;;-2.42;64.72;100931.13;1813623;78;20922;-63
2020/12/06 08:12:54;;;;;;;19.98;7.25;;;;;;;-2.39;64.62;100926.98;1813597;78;21053;-63
2020/12/06 08:15:26;;;;;;;11.48;5.65;;;;;;;-2.38;64.70;100926.17;1813677;79;21355;-63
2020/12/06 08:17:54;;;;;;;13.33;7.07;;;;;;;-2.39;64.18;100926.98;1813866;79;21506;-64
2020/12/06 08:20:24;;;;;;;11.00;6.42;;;;;;;-2.42;64.57;100919.67;1813546;78;21144;-64
2020/12/06 08:22:59;;;;;;;12.10;6.00;;;;;;;-2.46;64.69;100915.73;1813511;79;21104;-62
2020/12/06 08:25:31;;;;;;;13.22;5.80;;;;;;;-2.49;64.59;100912.22;1813596;78;21105;-63
2020/12/06 08:28:00;;;;;;;15.45;6.45;;;;;;;-2.54;64.48;100906.09;1813574;79;21194;-63
2020/12/06 08:30:30;;;;;;;16.87;7.50;;;;;;;-2.56;64.72;100911.13;1813597;79;21592;-63
2020/12/06 08:33:00;;;;;;;15.05;7.62;;;;;;;-2.55;65.21;100916.69;1813646;79;21485;-62
2020/12/06 08:35:43;;;;;;;15.88;7.35;;;;;;;-2.51;65.29;100915.11;1813563;79;21183;-62
2020/12/06 08:38:26;;;;;;;15.35;7.55;;;;;;;-2.46;65.56;100909.78;1812812;78;21585;-64
2020/12/06 08:41:11;;;;;;;16.15;7.37;;;;;;;-2.39;65.62;100904.45;1812625;78;21366;-67
2020/12/06 08:44:05;;;;;;;19.65;7.90;;;;;;;-2.35;65.70;100907.57;1813356;79;21156;-63
2020/12/06 08:46:33;;;;;;;19.10;7.87;;;;;;;-2.31;65.69;100903.91;1813212;79;21486;-64
2020/12/06 08:49:02;;;;;;;15.03;7.22;;;;;;;-2.25;66.06;100907.08;1813467;78;21632;-63
2020/12/06 08:51:35;;;;;;;23.67;6.95;;;;;;;-2.17;65.88;100902.67;1813285;79;21132;-63
2020/12/06 08:54:06;;;;;;;17.73;6.37;;;;;;;-2.10;65.64;100902.06;1813655;79;21189;-63
2020/12/06 08:56:41;;;;;;;10.23;5.40;;;;;;;-2.07;65.22;100892.38;1813615;79;21077;-62
2020/12/06 08:59:15;;;;;;;18.65;6.92;;;;;;;-2.06;65.06;100890.70;1813539;79;21116;-63
2020/12/06 09:01:56;;;;;;;10.78;5.58;;;;;;;-2.03;65.44;100892.94;1813503;78;21053;-63
2020/12/06 09:04:23;;;;;;;19.25;6.75;;;;;;;-1.96;65.76;100885.92;1813567;79;21045;-63
2020/12/06 09:06:53;;;;;;;16.87;7.55;;;;;;;-1.94;65.87;100879.19;1813539;79;21354;-63
2020/12/06 09:09:21;;;;;;;16.60;6.15;;;;;;;-1.91;65.99;100884.39;1813431;79;21021;-64
2020/12/06 09:11:53;;;;;;;10.98;5.85;;;;;;;-1.89;66.06;100880.20;1813505;79;21120;-63
2020/12/06 09:14:22;;;;;;;14.58;6.62;;;;;;;-1.88;66.00;100873.42;1813573;78;21598;-63
2020/12/06 09:16:50;;;;;;;28.12;7.47;;;;;;;-1.88;66.30;100875.56;1813541;79;21128;-62
2020/12/06 09:19:17;;;;;;;22.20;9.08;;;;;;;-1.89;66.41;100879.34;1813512;79;21553;-64
2020/12/06 09:21:46;;;;;;;18.00;8.05;;;;;;;-1.85;66.56;100881.17;1813451;79;21085;-62
2020/12/06 09:24:13;;;;;;;12.18;6.03;;;;;;;-1.80;66.84;100877.92;1813485;79;21470;-63
2020/12/06 09:26:41;;;;;;;17.82;6.17;;;;;;;-1.76;66.55;100878.48;1813456;78;21116;-63
2020/12/06 09:29:09;;;;;;;15.98;6.78;;;;;;;-1.75;66.11;100875.52;1813485;79;21108;-64
2020/12/06 09:31:37;;;;;;;11.63;6.80;;;;;;;-1.76;66.13;100880.16;1813513;79;21235;-64
2020/12/06 09:34:04;;;;;;;20.77;6.42;;;;;;;-1.77;66.39;100874.19;1813535;78;21498;-62
2020/12/06 09:36:34;;;;;;;16.45;8.58;;;;;;;-1.72;66.52;100865.82;1813559;77;21080;-63
2020/12/06 09:39:03;;;;;;;13.48;6.60;;;;;;;-1.70;66.45;100868.88;1812894;78;21160;-63
2020/12/06 09:41:30;;;;;;;13.40;5.83;;;;;;;-1.66;66.31;100870.70;1812719;79;21125;-64
2020/12/06 09:44:04;;;;;;;19.15;6.35;;;;;;;-1.61;66.21;100863.20;1807811;79;21368;-62
2020/12/06 09:46:30;;;;;;;17.00;6.70;;;;;;;-1.59;66.34;100861.12;1806646;79;21140;-64
2020/12/06 09:48:57;;;;;;;15.65;6.95;;;;;;;-1.52;66.12;100853.25;1807761;79;21391;-63
2020/12/06 09:51:25;;;;;;;18.45;8.13;;;;;;;-1.50;66.52;100846.50;1807776;78;21053;-63
2020/12/06 09:53:52;;;;;;;14.20;6.42;;;;;;;-1.45;66.35;100844.95;1807729;79;21630;-65
2020/12/06 09:56:30;;;;;;;13.50;6.37;;;;;;;-1.48;65.86;100838.08;1807808;79;21372;-64
2020/12/06 09:58:57;;;;;;;22.87;7.35;;;;;;;-1.50;65.81;100836.30;1807681;79;21242;-64
2020/12/06 10:01:25;;;;;;;29.32;8.38;;;;;;;-1.54;66.42;100839.16;1807739;79;21062;-63
2020/12/06 10:03:53;;;;;;;10.25;5.60;;;;;;;-1.48;66.70;100839.34;1807787;78;21053;-63
2020/12/06 10:06:34;;;;;;;9.80;5.58;;;;;;;-1.41;66.38;100837.44;1779511;80;21602;-63
2020/12/06 10:09:03;;;;;;;11.73;7.22;;;;;;;-1.39;66.30;100828.52;1779089;80;22289;-63
2020/12/06 10:11:30;;;;;;;14.18;6.67;;;;;;;-1.40;66.13;100826.38;1778843;80;21850;-62
2020/12/06 10:13:58;;;;;;;11.35;6.17;;;;;;;-1.38;66.45;100823.87;1778912;80;21138;-62
2020/12/06 10:16:26;;;;;;;17.17;7.10;;;;;;;-1.36;66.61;100816.27;1778918;80;21233;-62
2020/12/06 10:18:54;;;;;;;11.00;5.80;;;;;;;-1.35;66.71;100821.82;1778950;79;21095;-63
2020/12/06 10:21:22;;;;;;;11.70;5.53;;;;;;;-1.33;66.66;100812.52;1778910;80;23550;-63
2020/12/06 10:23:50;;;;;;;16.75;6.37;;;;;;;-1.30;66.37;100814.76;1778894;80;21114;-62
2020/12/06 10:26:18;;;;;;;11.90;5.85;;;;;;;-1.31;66.53;100813.44;1778946;80;21578;-62
2020/12/06 10:28:47;;;;;;;9.65;6.25;;;;;;;-1.34;66.48;100806.55;1778959;79;21173;-63
2020/12/06 10:31:19;;;;;;;11.70;6.00;;;;;;;-1.38;66.45;100802.19;1779053;80;21495;-65
2020/12/06 10:33:47;;;;;;;15.38;6.17;;;;;;;-1.43;66.45;100802.48;1779104;80;21357;-63
2020/12/06 10:36:15;;;;;;;16.85;6.35;;;;;;;-1.42;65.78;100807.64;1769476;79;21107;-64
2020/12/06 10:38:42;;;;;;;13.40;5.55;;;;;;;-1.42;66.07;100798.70;1748120;80;21463;-62
2020/12/06 10:41:13;;;;;;;10.98;5.47;;;;;;;-1.39;66.29;100794.07;1748101;81;21106;-63
2020/12/06 10:43:40;;;;;;;8.53;5.70;;;;;;;-1.36;66.37;100781.81;1748138;80;21067;-62
2020/12/06 10:46:08;;;;;;;14.23;6.00;;;;;;;-1.35;66.62;100786.09;1748078;80;21197;-63
2020/12/06 10:48:36;;;;;;;9.83;5.50;;;;;;;-1.32;66.96;100787.45;1748077;82;21193;-64
2020/12/06 10:51:04;;;;;;;8.43;4.85;;;;;;;-1.30;67.13;100795.61;1748096;82;21055;-63
2020/12/06 10:53:31;;;;;;;14.80;5.30;;;;;;;-1.27;66.03;100791.01;1748084;81;21095;-63
2020/12/06 10:55:59;;;;;;;15.18;5.78;;;;;;;-1.27;66.39;100794.42;1748126;82;21118;-63
2020/12/06 10:58:27;;;;;;;12.47;5.12;;;;;;;-1.26;66.60;100792.33;1748030;82;21292;-64
2020/12/06 11:00:54;;;;;;;12.35;5.40;;;;;;;-1.24;66.71;100785.99;1748010;82;21090;-64
2020/12/06 11:03:22;;;;;;;9.95;4.75;;;;;;;-1.19;66.25;100783.98;1748106;81;21461;-63
2020/12/06 11:05:49;;;;;;;8.58;4.62;;;;;;;-1.14;66.04;100784.12;1757642;81;21124;-63
2020/12/06 11:08:17;;;;;;;8.78;4.28;;;;;;;-1.09;65.67;100780.01;1765011;80;21117;-64
2020/12/06 11:10:46;;;;;;;7.42;4.33;;;;;;;-1.05;65.64;100790.77;1765025;81;21379;-63
2020/12/06 11:13:14;;;;;;;8.08;4.53;;;;;;;-1.05;64.71;100777.58;1765034;81;21255;-64
2020/12/06 11:15:42;;;;;;;10.23;5.28;;;;;;;-1.03;64.43;100780.59;1764956;80;21006;-64
2020/12/06 11:18:10;;;;;;;9.68;4.50;;;;;;;-1.02;64.48;100779.77;1764963;81;21101;-63
2020/12/06 11:20:40;;;;;;;14.75;5.95;;;;;;;-1.02;64.96;100781.91;1765009;81;21576;-63
2020/12/06 11:23:12;;;;;;;10.18;5.15;;;;;;;-1.01;65.05;100784.91;1764965;81;21375;-65
2020/12/06 11:25:41;;;;;;;13.40;5.65;;;;;;;-1.02;65.11;100781.05;1765134;81;21553;-64
2020/12/06 11:28:09;;;;;;;12.05;5.60;;;;;;;-1.06;65.37;100784.79;1765049;81;21116;-63